ADDS METAR Data INFO
IDs: Format: Raw Decoded Include TAF

Data at: 0220 UTC 18 Jan 2018

KOJC 180153Z 20009KT 10SM CLR M09/M13 A3048 RMK AO2 SLP345 T10891128
KOJC 180053Z 19005KT 10SM CLR M09/M13 A3049 RMK AO2 SLP348 T10891128
KOJC 172353Z 20005KT 10SM CLR M08/M12 A3050 RMK AO2 SLP351 T10781122 11056 21089 56010
KOJC 172253Z 19008KT 10SM CLR M06/M12 A3051 RMK AO2 SLP354 T10611117
KOJC 172153Z 20007KT 10SM CLR M06/M12 A3051 RMK AO2 SLP354 T10561122
KOJC 172053Z 22008KT 10SM CLR M06/M12 A3053 RMK AO2 SLP361 T10561117 56031
KOJC 171953Z 22010KT 10SM CLR M06/M13 A3056 RMK AO2 SLP370 T10611128
KOJC 171853Z 20007KT 10SM CLR M07/M12 A3058 RMK AO2 SLP380 T10721122
KOJC 171753Z 23008KT 10SM CLR M09/M13 A3063 RMK AO2 SLP396 T10891133 11083 21178 58008
KOJC 171653Z 23009KT 10SM CLR M10/M13 A3065 RMK AO2 SLP404 T11001133
KOJC 171553Z 22006KT 10SM CLR M13/M15 A3066 RMK AO2 SLP409 T11281150
KOJC 171453Z 23005KT 10SM CLR M15/M17 A3065 RMK AO2 SLP405 T11501167 53003
KOJC 171353Z 23005KT 9SM CLR M17/M18 A3064 RMK AO2 SLP402 T11721183
KOJC 171253Z 23005KT 10SM CLR M17/M18 A3065 RMK AO2 SLP405 T11721183
KOJC 171153Z AUTO 23005KT 10SM CLR M17/M19 A3064 RMK AO2 SLP403 I6000 T11721189 11172 21189 56006
KOJC 171053Z AUTO 23004KT 10SM CLR M17/M18 A3065 RMK AO2 SLP404 T11721183
KOJC 170953Z AUTO 22003KT 10SM CLR M18/M20 A3065 RMK AO2 SLP407 T11831200
KOJC 170853Z AUTO 22003KT 10SM CLR M18/M20 A3066 RMK AO2 SLP409 I3000 T11831200 56008
KOJC 170753Z AUTO 00000KT 10SM CLR M17/M19 A3066 RMK AO2 SLP410 I1000 T11721189
KOJC 170653Z AUTO 00000KT 10SM CLR M17/M19 A3067 RMK AO2 SLP414 I1000 T11721189
KOJC 170553Z AUTO 00000KT 10SM CLR M18/M19 A3069 RMK AO2 SLP419 I1000 I6000 T11781194 11139 21178 411221200 58004
KOJC 170453Z AUTO 00000KT 10SM CLR M17/M19 A3069 RMK AO2 SLP422 T11721189
KOJC 170353Z AUTO 00000KT 10SM CLR M16/M18 A3069 RMK AO2 SLP423 T11611183
KOJC 170253Z 34004KT 10SM CLR M14/M18 A3070 RMK AO2 SLP424 T11441178 56001
KOJC 170153Z 35005KT 10SM CLR M14/M18 A3070 RMK AO2 SLP425 T11441178
KOJC 170053Z 33004KT 10SM CLR M14/M18 A3070 RMK AO2 SLP424 T11441178
KOJC 162353Z 33005KT 10SM CLR M14/M18 A3070 RMK AO2 SLP425 T11441178 11122 21156 58000
KOJC 162253Z 31009KT 10SM CLR M13/M18 A3070 RMK AO2 SLP423 T11331178
KOJC 162153Z 33008KT 10SM FEW022 M13/M17 A3071 RMK AO2 SLP426 T11281172
KOJC 162053Z 32010KT 10SM FEW021 M13/M17 A3070 RMK AO2 SLP425 T11281172 56014
KOJC 161953Z 32009KT 10SM FEW021 M13/M18 A3071 RMK AO2 SLP426 T11331178
KOJC 161853Z 33011KT 10SM FEW020 FEW029 M14/M18 A3072 RMK AO2 SLP431 T11391183
KOJC 161753Z 32010KT 10SM FEW025 M16/M19 A3075 RMK AO2 SLP439 T11561194 11156 21200 50006
KOJC 161653Z 33011KT 8SM FEW018 M17/M20 A3075 RMK AO2 SLP443 T11671200
KOJC 161553Z 34010KT 6SM HZ FEW017 OVC026 M18/M22 A3075 RMK AO2 SLP441 T11831217
KOJC 161453Z 33011G18KT 10SM OVC023 M19/M22 A3073 RMK AO2 SLP434 T11891222 53008